Time;durP1;ratioP1;P1;durP2;ratioP2;P2;SDS_P1;SDS_P2;PMS_P1;PMS_P2;Temp;Humidity;BMP_temperature;BMP_pressure;BME280_temperature;BME280_humidity;BME280_pressure;Samples;Min_cycle;Max_cycle;Signal;HPM_P1;HPM_P2
2022/07/25 00:00:47;;;;;;;8.23;7.00;;;17.10;83.50;;;;;;4133379;28;20193;-72
2022/07/25 00:02:48;;;;;;;8.27;7.43;;;17.10;83.70;;;;;;4133769;28;20222;-71
2022/07/25 00:04:48;;;;;;;8.33;7.47;;;17.10;83.70;;;;;;4132378;28;20200;-71
2022/07/25 00:06:49;;;;;;;10.93;9.93;;;17.10;84.10;;;;;;4132567;28;20635;-71
2022/07/25 00:08:50;;;;;;;9.57;7.73;;;17.10;83.80;;;;;;4133167;28;20186;-72
2022/07/25 00:10:50;;;;;;;8.07;7.03;;;17.10;83.60;;;;;;4133100;28;20224;-72
2022/07/25 00:12:51;;;;;;;10.97;9.87;;;17.10;83.50;;;;;;4133191;28;20736;-72
2022/07/25 00:14:51;;;;;;;10.83;9.93;;;17.00;84.10;;;;;;4132328;28;20217;-71
2022/07/25 00:16:52;;;;;;;11.23;10.17;;;17.00;84.80;;;;;;4132446;28;20193;-73
2022/07/25 00:18:53;;;;;;;9.47;8.33;;;16.90;85.10;;;;;;4131574;28;20189;-73
2022/07/25 00:20:53;;;;;;;8.90;8.00;;;16.90;85.30;;;;;;4132487;28;20658;-72
2022/07/25 00:22:54;;;;;;;9.77;7.70;;;16.90;86.50;;;;;;4132645;28;20209;-72
2022/07/25 00:24:55;;;;;;;12.03;10.47;;;16.80;86.30;;;;;;4131771;28;20210;-72
2022/07/25 00:26:55;;;;;;;9.50;8.50;;;16.80;88.40;;;;;;4132646;28;20880;-73
2022/07/25 00:28:56;;;;;;;9.03;7.73;;;16.90;85.70;;;;;;4132529;28;20261;-72
2022/07/25 00:30:56;;;;;;;10.53;7.93;;;16.90;85.70;;;;;;4132763;28;20270;-72
2022/07/25 00:32:57;;;;;;;10.27;9.37;;;16.80;86.30;;;;;;4132262;28;20244;-72
2022/07/25 00:34:57;;;;;;;9.40;7.13;;;16.80;86.20;;;;;;4131866;28;20202;-72
2022/07/25 00:36:58;;;;;;;10.37;7.80;;;16.80;86.70;;;;;;4132611;28;20261;-72
2022/07/25 00:38:59;;;;;;;10.73;8.50;;;16.80;86.20;;;;;;4132248;28;20189;-71
2022/07/25 00:40:59;;;;;;;14.40;13.23;;;16.70;86.60;;;;;;4132452;28;20265;-72
2022/07/25 00:43:00;;;;;;;11.53;10.37;;;16.70;86.80;;;;;;4131141;28;20700;-71
2022/07/25 00:45:01;;;;;;;11.50;10.13;;;16.60;87.30;;;;;;4131916;28;20612;-72
2022/07/25 00:47:01;;;;;;;8.63;7.70;;;16.60;87.80;;;;;;4132408;28;20840;-72
2022/07/25 00:49:02;;;;;;;11.80;10.70;;;16.60;88.10;;;;;;4132056;28;20190;-72
2022/07/25 00:51:03;;;;;;;7.47;6.73;;;16.50;88.10;;;;;;4132359;28;20182;-72
2022/07/25 00:53:03;;;;;;;8.37;7.47;;;16.50;89.10;;;;;;4132294;28;20189;-72
2022/07/25 00:55:05;;;;;;;9.23;8.07;;;16.50;89.10;;;;;;4130173;28;20783;-72
2022/07/25 00:57:05;;;;;;;11.17;10.13;;;16.40;90.00;;;;;;4132481;28;20186;-73
2022/07/25 00:59:06;;;;;;;9.80;7.63;;;16.40;89.90;;;;;;4131812;28;20579;-73
2022/07/25 01:01:07;;;;;;;8.47;7.57;;;16.40;89.50;;;;;;4131930;28;20181;-72
2022/07/25 01:03:07;;;;;;;8.70;7.90;;;16.50;89.70;;;;;;4131571;28;20237;-72
2022/07/25 01:05:08;;;;;;;8.90;7.23;;;16.40;89.50;;;;;;4131352;28;20695;-72
2022/07/25 01:07:09;;;;;;;8.53;7.70;;;16.40;89.40;;;;;;4131873;28;20664;-73
2022/07/25 01:09:10;;;;;;;7.37;6.53;;;16.40;89.60;;;;;;4131626;28;20214;-73
2022/07/25 01:11:11;;;;;;;10.67;8.80;;;16.40;90.00;;;;;;4131830;28;20190;-72
2022/07/25 01:13:11;;;;;;;11.77;9.00;;;16.40;89.80;;;;;;4131623;28;20179;-72
2022/07/25 01:15:12;;;;;;;10.13;8.80;;;16.40;89.90;;;;;;4131077;28;20685;-72
2022/07/25 01:17:12;;;;;;;10.40;9.07;;;16.30;89.90;;;;;;4131781;28;20288;-73
2022/07/25 01:19:13;;;;;;;7.97;7.03;;;16.30;90.00;;;;;;4131778;28;20190;-73
2022/07/25 01:21:14;;;;;;;11.07;9.57;;;16.30;90.00;;;;;;4131559;28;20209;-73
2022/07/25 01:23:14;;;;;;;12.30;10.90;;;16.30;89.60;;;;;;4131438;28;20229;-73
2022/07/25 01:25:16;;;;;;;8.07;7.27;;;16.30;90.00;;;;;;4130874;28;20260;-73
2022/07/25 01:27:16;;;;;;;8.63;6.97;;;16.20;90.40;;;;;;4130169;28;20259;-73
2022/07/25 01:29:17;;;;;;;8.80;6.80;;;16.20;90.50;;;;;;4131379;28;20261;-73
2022/07/25 01:31:17;;;;;;;7.67;6.63;;;16.20;90.40;;;;;;4131417;28;20185;-72
2022/07/25 01:33:19;;;;;;;9.20;8.30;;;16.20;90.00;;;;;;4131308;28;20197;-72
2022/07/25 01:35:20;;;;;;;8.47;7.40;;;16.20;90.20;;;;;;4130533;28;20198;-73
2022/07/25 01:37:21;;;;;;;10.27;7.60;;;16.20;90.10;;;;;;4129838;28;20190;-73
2022/07/25 01:39:21;;;;;;;8.83;7.43;;;16.20;90.30;;;;;;4131087;28;20695;-73
2022/07/25 01:41:22;;;;;;;8.73;7.03;;;16.20;90.40;;;;;;4131252;28;20190;-73
2022/07/25 01:43:22;;;;;;;8.73;7.83;;;16.20;90.50;;;;;;4131226;28;20214;-72
2022/07/25 01:45:23;;;;;;;8.43;7.53;;;16.20;90.50;;;;;;4130510;28;20206;-73
2022/07/25 01:47:24;;;;;;;8.93;8.03;;;16.10;90.40;;;;;;4131185;28;20289;-72
2022/07/25 01:49:25;;;;;;;9.57;8.13;;;16.10;90.40;;;;;;4113755;28;20285;-73
2022/07/25 01:51:26;;;;;;;7.93;6.60;;;16.10;90.60;;;;;;4131385;28;20187;-73
2022/07/25 01:53:26;;;;;;;8.90;7.13;;;16.20;90.30;;;;;;4130942;28;20653;-73
2022/07/25 01:55:27;;;;;;;13.27;12.13;;;16.20;90.40;;;;;;4129072;28;20206;-73
2022/07/25 01:57:28;;;;;;;8.77;7.07;;;16.10;90.50;;;;;;4131076;28;20198;-73
2022/07/25 01:59:29;;;;;;;8.27;7.23;;;16.10;90.70;;;;;;4131136;28;20220;-73
2022/07/25 02:01:29;;;;;;;8.70;6.77;;;16.10;90.70;;;;;;4129270;28;20715;-73
2022/07/25 02:03:30;;;;;;;8.30;7.33;;;16.10;90.70;;;;;;4130824;28;20221;-73
2022/07/25 02:05:30;;;;;;;8.03;6.87;;;16.10;90.30;;;;;;4130317;28;20295;-73
2022/07/25 02:07:31;;;;;;;9.33;7.37;;;16.10;90.60;;;;;;4130822;28;20251;-73
2022/07/25 02:09:32;;;;;;;8.70;7.37;;;16.00;90.80;;;;;;4130931;28;20669;-74
2022/07/25 02:11:33;;;;;;;9.60;7.70;;;16.00;91.00;;;;;;4130952;28;20243;-73
2022/07/25 02:13:33;;;;;;;10.37;7.97;;;16.00;90.90;;;;;;4130378;28;20210;-74
2022/07/25 02:15:35;;;;;;;8.60;7.10;;;16.00;91.00;;;;;;4130092;28;20212;-75
2022/07/25 02:17:35;;;;;;;9.17;7.77;;;16.00;90.80;;;;;;4129424;28;20221;-73
2022/07/25 02:19:36;;;;;;;9.37;8.00;;;15.90;90.90;;;;;;4129548;28;20189;-74
2022/07/25 02:21:36;;;;;;;8.10;7.10;;;16.00;90.80;;;;;;4130715;28;20190;-73
2022/07/25 02:23:37;;;;;;;8.20;7.40;;;16.00;90.80;;;;;;4124747;28;20220;-74
2022/07/25 02:25:37;;;;;;;9.23;6.90;;;15.90;91.20;;;;;;4128315;28;20679;-74
2022/07/25 02:27:38;;;;;;;8.43;7.50;;;15.90;91.40;;;;;;4130479;28;20178;-73
2022/07/25 02:29:38;;;;;;;9.17;7.10;;;15.90;91.20;;;;;;4130706;28;20265;-74
2022/07/25 02:31:39;;;;;;;12.50;11.23;;;15.90;91.20;;;;;;4130493;28;20185;-73
2022/07/25 02:33:39;;;;;;;8.40;6.57;;;15.80;91.50;;;;;;4129318;28;20196;-74
2022/07/25 02:35:40;;;;;;;8.50;6.87;;;15.90;91.20;;;;;;4130032;28;20210;-74
2022/07/25 02:37:41;;;;;;;8.77;7.87;;;15.90;91.30;;;;;;4129316;28;20273;-74
2022/07/25 02:39:41;;;;;;;7.83;6.67;;;15.90;91.70;;;;;;4128930;28;20201;-74
2022/07/25 02:41:43;;;;;;;13.30;12.10;;;15.90;91.50;;;;;;4130387;28;20284;-74
2022/07/25 02:43:43;;;;;;;7.67;6.80;;;15.90;91.90;;;;;;4129176;28;20221;-73
2022/07/25 02:45:44;;;;;;;8.07;7.20;;;15.90;91.80;;;;;;4128581;28;20205;-73
2022/07/25 02:47:45;;;;;;;7.30;6.60;;;15.90;91.80;;;;;;4130401;28;20223;-74
2022/07/25 02:49:46;;;;;;;9.20;7.90;;;15.90;92.00;;;;;;4130333;28;20185;-73
2022/07/25 02:51:46;;;;;;;7.73;6.60;;;15.90;91.90;;;;;;4130061;28;20238;-74
2022/07/25 02:53:47;;;;;;;10.73;7.43;;;15.80;91.90;;;;;;4128640;28;20710;-74
2022/07/25 02:55:47;;;;;;;9.87;8.10;;;15.90;92.20;;;;;;4130260;28;20206;-74
2022/07/25 02:57:48;;;;;;;8.40;7.00;;;15.90;91.80;;;;;;4130384;28;20268;-75
2022/07/25 02:59:48;;;;;;;8.07;7.13;;;15.90;92.20;;;;;;4130347;28;20551;-74
2022/07/25 03:01:49;;;;;;;8.97;7.00;;;15.90;91.70;;;;;;4130382;28;20392;-74
2022/07/25 03:03:50;;;;;;;9.63;8.63;;;15.90;91.90;;;;;;4128476;28;20663;-73
2022/07/25 03:05:50;;;;;;;8.53;7.43;;;15.80;92.00;;;;;;4130382;28;20201;-74
2022/07/25 03:07:51;;;;;;;9.97;7.53;;;15.80;91.80;;;;;;4130687;28;20261;-74
2022/07/25 03:09:51;;;;;;;10.17;8.00;;;15.80;92.10;;;;;;4130155;28;20182;-74
2022/07/25 03:11:52;;;;;;;11.23;10.23;;;15.80;92.20;;;;;;4130426;28;20294;-74
2022/07/25 03:13:53;;;;;;;7.60;6.80;;;15.90;92.90;;;;;;4128393;28;20186;-73
2022/07/25 03:15:54;;;;;;;10.90;7.77;;;15.90;92.70;;;;;;4130108;28;20363;-74
2022/07/25 03:17:54;;;;;;;9.23;7.40;;;15.90;93.00;;;;;;4129302;28;20188;-74
2022/07/25 03:19:55;;;;;;;17.73;16.30;;;15.80;93.10;;;;;;4130345;28;20209;-73
2022/07/25 03:21:56;;;;;;;10.30;9.40;;;15.80;93.80;;;;;;4130310;28;20190;-74
2022/07/25 03:23:56;;;;;;;8.33;7.07;;;15.80;92.60;;;;;;4128261;28;20213;-73
2022/07/25 03:25:57;;;;;;;8.50;6.90;;;15.80;92.40;;;;;;4132117;28;20223;-74
2022/07/25 03:27:57;;;;;;;10.13;7.73;;;15.80;92.70;;;;;;4133677;28;20683;-74
2022/07/25 03:29:58;;;;;;;7.37;6.57;;;15.80;92.30;;;;;;4133787;28;20178;-75
2022/07/25 03:31:59;;;;;;;8.07;7.13;;;15.70;92.30;;;;;;4133886;28;20187;-74
2022/07/25 03:33:59;;;;;;;9.33;7.17;;;15.70;92.20;;;;;;4133271;28;20216;-75
2022/07/25 03:36:00;;;;;;;8.80;7.73;;;15.60;92.90;;;;;;4133926;28;20222;-75
2022/07/25 03:38:01;;;;;;;11.37;10.37;;;15.70;92.80;;;;;;4132343;28;20218;-75
2022/07/25 03:40:01;;;;;;;10.37;8.30;;;15.80;92.40;;;;;;4132227;28;20237;-75
2022/07/25 03:42:02;;;;;;;9.27;7.83;;;15.80;91.70;;;;;;4132174;28;20190;-74
2022/07/25 03:44:03;;;;;;;8.53;7.70;;;15.70;91.50;;;;;;4133255;28;20224;-75
2022/07/25 03:46:03;;;;;;;8.93;7.20;;;15.70;92.00;;;;;;4133805;28;20198;-75
2022/07/25 03:48:04;;;;;;;10.07;8.83;;;15.70;92.50;;;;;;4133975;28;20222;-74
2022/07/25 03:50:05;;;;;;;9.27;7.80;;;15.70;93.50;;;;;;4133665;28;20676;-75
2022/07/25 03:52:06;;;;;;;12.47;11.33;;;15.70;94.30;;;;;;4133494;28;20214;-75
2022/07/25 03:54:07;;;;;;;10.57;9.50;;;15.70;94.70;;;;;;4133103;28;20660;-75
2022/07/25 03:56:08;;;;;;;9.23;8.20;;;15.80;94.90;;;;;;4133287;28;20602;-75
2022/07/25 03:58:08;;;;;;;8.10;7.30;;;15.80;95.00;;;;;;4133235;28;20196;-74
2022/07/25 04:00:11;;;;;;;9.70;7.53;;;15.90;94.20;;;;;;4133475;28;20265;-75
2022/07/25 04:02:11;;;;;;;11.47;8.83;;;15.80;94.10;;;;;;4133381;28;20553;-74
2022/07/25 04:04:12;;;;;;;10.27;9.27;;;15.80;94.80;;;;;;4132653;28;20212;-75
2022/07/25 04:06:13;;;;;;;10.80;9.60;;;15.80;95.20;;;;;;4132207;28;20219;-74
2022/07/25 04:08:14;;;;;;;12.27;11.07;;;15.90;96.00;;;;;;4132727;28;20691;-75
2022/07/25 04:10:14;;;;;;;15.47;13.93;;;16.00;96.10;;;;;;4133197;28;20189;-73
2022/07/25 04:12:15;;;;;;;14.97;13.20;;;16.00;96.40;;;;;;4133469;28;20189;-74
2022/07/25 04:14:15;;;;;;;10.10;7.97;;;16.10;96.20;;;;;;4132566;28;20206;-74
2022/07/25 04:16:16;;;;;;;10.90;9.23;;;16.10;96.30;;;;;;4133369;28;20235;-74
2022/07/25 04:18:17;;;;;;;11.73;10.53;;;16.10;96.00;;;;;;4133182;28;20186;-73
2022/07/25 04:20:17;;;;;;;11.07;9.13;;;16.20;96.10;;;;;;4132495;28;20323;-75
2022/07/25 04:22:18;;;;;;;16.53;12.27;;;16.20;96.10;;;;;;4132483;28;20186;-76
2022/07/25 04:24:19;;;;;;;9.43;7.60;;;16.30;96.10;;;;;;4131483;28;20213;-75
2022/07/25 04:26:19;;;;;;;11.10;9.83;;;16.30;95.50;;;;;;4130871;28;20205;-75
2022/07/25 04:28:20;;;;;;;12.73;11.57;;;16.30;95.90;;;;;;4132072;28;20178;-75
2022/07/25 04:30:20;;;;;;;14.93;13.43;;;16.30;96.10;;;;;;4132119;28;20179;-75
2022/07/25 04:32:21;;;;;;;12.47;10.90;;;16.40;96.90;;;;;;4128809;28;20199;-75
2022/07/25 04:34:22;;;;;;;11.43;8.77;;;16.40;97.00;;;;;;4130038;28;20198;-74
2022/07/25 04:36:23;;;;;;;19.93;17.77;;;16.40;96.80;;;;;;4139367;28;20200;-75
2022/07/25 04:38:23;;;;;;;9.53;8.53;;;16.40;97.10;;;;;;4147229;28;20188;-75
2022/07/25 04:40:24;;;;;;;11.40;9.40;;;16.40;96.90;;;;;;4148157;28;20181;-75
2022/07/25 04:42:24;;;;;;;9.80;8.80;;;16.40;96.10;;;;;;4146805;28;20182;-74
2022/07/25 04:44:25;;;;;;;10.20;8.30;;;16.50;96.30;;;;;;4147306;28;20212;-75
2022/07/25 04:46:25;;;;;;;11.27;9.77;;;16.50;95.40;;;;;;4146632;28;20694;-75
2022/07/25 04:48:26;;;;;;;15.00;13.73;;;16.50;95.80;;;;;;4148001;28;20574;-75
2022/07/25 04:50:27;;;;;;;21.87;19.20;;;16.50;96.30;;;;;;4147991;28;20178;-75
2022/07/25 04:52:28;;;;;;;12.87;11.57;;;16.60;96.60;;;;;;4147737;28;20574;-75
2022/07/25 04:54:28;;;;;;;63.17;45.03;;;16.60;96.10;;;;;;4129520;28;20186;-75
2022/07/25 04:56:29;;;;;;;12.27;10.97;;;16.60;96.20;;;;;;4131893;28;20192;-76
2022/07/25 04:58:30;;;;;;;14.20;12.80;;;16.60;95.10;;;;;;4130402;28;20674;-75
2022/07/25 05:00:31;;;;;;;13.53;9.27;;;16.70;95.50;;;;;;4131792;28;20185;-75
2022/07/25 05:02:33;;;;;;;16.00;14.63;;;16.70;94.30;;;;;;4131481;28;20182;-75
2022/07/25 05:04:33;;;;;;;11.37;8.87;;;16.70;94.60;;;;;;4130945;28;20297;-75
2022/07/25 05:06:34;;;;;;;9.93;8.93;;;16.70;94.70;;;;;;4130326;28;20190;-75
2022/07/25 05:08:34;;;;;;;11.80;10.63;;;16.70;95.20;;;;;;4131880;28;20741;-75
2022/07/25 05:10:35;;;;;;;15.23;13.33;;;16.70;95.00;;;;;;4131624;28;20190;-75
2022/07/25 05:12:35;;;;;;;11.20;10.10;;;16.70;94.70;;;;;;4131476;28;20174;-75
2022/07/25 05:14:37;;;;;;;12.73;11.50;;;16.80;94.40;;;;;;4129580;28;20202;-75
2022/07/25 05:16:37;;;;;;;10.50;9.40;;;16.80;94.90;;;;;;4131597;28;20178;-75
2022/07/25 05:18:38;;;;;;;15.73;14.13;;;16.90;94.30;;;;;;4131461;28;20256;-75
2022/07/25 05:20:38;;;;;;;12.87;10.77;;;17.00;94.20;;;;;;4131695;28;20189;-75
2022/07/25 05:22:39;;;;;;;15.40;13.87;;;17.00;94.50;;;;;;4131335;28;20685;-75
2022/07/25 05:24:40;;;;;;;12.27;11.03;;;17.10;94.40;;;;;;4131004;28;20202;-75
2022/07/25 05:26:41;;;;;;;10.77;9.57;;;17.10;94.10;;;;;;4131633;28;20262;-75
2022/07/25 05:28:41;;;;;;;21.60;19.77;;;17.20;94.20;;;;;;4131342;28;20696;-74
2022/07/25 05:30:42;;;;;;;10.63;9.47;;;17.20;94.40;;;;;;4131297;28;20309;-75
2022/07/25 05:32:42;;;;;;;14.97;13.47;;;17.30;94.00;;;;;;4131268;28;20229;-76
2022/07/25 05:34:43;;;;;;;17.97;16.50;;;17.40;93.80;;;;;;4130446;28;20232;-75
2022/07/25 05:36:44;;;;;;;13.10;11.67;;;17.50;93.20;;;;;;4131210;28;20186;-76
2022/07/25 05:38:44;;;;;;;11.37;10.07;;;17.50;93.80;;;;;;4131021;28;20187;-75
2022/07/25 05:40:45;;;;;;;21.40;19.50;;;17.50;93.50;;;;;;4131300;28;20182;-75
2022/07/25 05:42:45;;;;;;;10.40;9.40;;;17.60;92.90;;;;;;4131026;28;20175;-76
2022/07/25 05:44:46;;;;;;;13.17;11.77;;;17.70;93.20;;;;;;4130304;28;20190;-75
2022/07/25 05:46:46;;;;;;;11.53;10.37;;;17.70;92.70;;;;;;4131293;28;20171;-75
2022/07/25 05:48:47;;;;;;;12.90;9.20;;;17.80;92.80;;;;;;4130211;28;20171;-75
2022/07/25 05:50:47;;;;;;;11.17;9.77;;;18.00;92.10;;;;;;4131028;28;20851;-76
2022/07/25 05:52:48;;;;;;;25.30;23.20;;;18.00;91.90;;;;;;4131102;28;20167;-75
2022/07/25 05:54:49;;;;;;;12.33;11.13;;;18.10;91.70;;;;;;4130240;28;20205;-77
2022/07/25 05:56:49;;;;;;;11.13;9.90;;;18.10;91.20;;;;;;4130932;28;20174;-76
2022/07/25 05:58:50;;;;;;;11.87;9.67;;;18.20;91.20;;;;;;4131065;28;20260;-76
2022/07/25 06:00:51;;;;;;;11.27;10.27;;;18.20;90.80;;;;;;4129465;28;20179;-75
2022/07/25 06:02:51;;;;;;;9.77;8.80;;;18.20;91.30;;;;;;4130623;28;20175;-75
2022/07/25 06:04:52;;;;;;;11.27;10.17;;;18.20;91.10;;;;;;4129803;28;20199;-75
2022/07/25 06:06:52;;;;;;;43.53;39.40;;;18.30;91.10;;;;;;4130636;28;20190;-75
2022/07/25 06:08:53;;;;;;;18.67;17.23;;;18.30;91.00;;;;;;4130672;28;20261;-76
2022/07/25 06:10:53;;;;;;;11.90;10.80;;;18.30;91.30;;;;;;4130490;28;20582;-76
2022/07/25 06:12:54;;;;;;;15.63;9.33;;;18.40;91.10;;;;;;4130698;28;20265;-76
2022/07/25 06:14:54;;;;;;;12.30;11.03;;;18.50;90.60;;;;;;4129949;28;20207;-76
2022/07/25 06:16:56;;;;;;;22.07;20.17;;;18.60;91.20;;;;;;4129358;28;20182;-76
2022/07/25 06:18:56;;;;;;;14.93;13.17;;;18.70;90.70;;;;;;4130786;28;20182;-76
2022/07/25 06:20:57;;;;;;;10.90;9.83;;;18.90;90.60;;;;;;4129592;28;20178;-74
2022/07/25 06:22:58;;;;;;;11.50;9.20;;;18.90;90.40;;;;;;4130723;28;20556;-75
2022/07/25 06:25:01;;;;;;;9.77;8.73;;;19.00;90.50;;;;;;4130049;28;20572;-75
2022/07/25 06:27:02;;;;;;;12.17;9.90;;;19.20;90.70;;;;;;4130709;28;20265;-75
2022/07/25 06:29:03;;;;;;;11.87;10.67;;;19.30;91.00;;;;;;4130845;28;20275;-75
2022/07/25 06:31:03;;;;;;;11.37;10.27;;;19.50;90.00;;;;;;4130624;28;20178;-75
2022/07/25 06:33:04;;;;;;;15.07;13.80;;;19.60;89.30;;;;;;4130629;28;20184;-74
2022/07/25 06:35:05;;;;;;;15.43;14.10;;;19.70;89.50;;;;;;4128648;28;20621;-74
2022/07/25 06:37:05;;;;;;;9.93;8.80;;;19.90;87.90;;;;;;4129187;28;20545;-75
2022/07/25 06:39:06;;;;;;;21.00;17.00;;;20.10;85.80;;;;;;4130475;28;20202;-76
2022/07/25 06:41:06;;;;;;;9.73;7.90;;;20.20;84.10;;;;;;4130509;28;20217;-75
2022/07/25 06:43:07;;;;;;;13.60;12.13;;;20.30;81.80;;;;;;4130270;28;20298;-75
2022/07/25 06:45:09;;;;;;;9.60;8.13;;;20.50;79.70;;;;;;4130105;28;20190;-75
2022/07/25 06:47:11;;;;;;;43.13;30.67;;;20.50;79.90;;;;;;4130449;28;20250;-75
2022/07/25 06:49:12;;;;;;;183.43;62.23;;;20.70;78.30;;;;;;4129154;28;20182;-76
2022/07/25 06:51:12;;;;;;;9.97;8.77;;;20.80;78.10;;;;;;4130385;28;20182;-76
2022/07/25 06:53:13;;;;;;;14.70;10.30;;;20.90;75.30;;;;;;4130110;28;20675;-76
2022/07/25 06:55:14;;;;;;;13.20;11.00;;;21.00;75.80;;;;;;4129221;28;20202;-75
2022/07/25 06:57:15;;;;;;;26.20;16.10;;;21.60;69.30;;;;;;4130295;28;20605;-75
2022/07/25 06:59:15;;;;;;;7.20;6.23;;;22.40;64.80;;;;;;4130353;28;20210;-76
2022/07/25 07:01:16;;;;;;;9.30;7.30;;;22.60;62.40;;;;;;4132840;28;20186;-75
2022/07/25 07:03:17;;;;;;;6.47;5.63;;;23.00;60.40;;;;;;4133486;28;20202;-77
2022/07/25 07:05:17;;;;;;;7.40;6.67;;;23.90;53.40;;;;;;4133000;28;20234;-76
2022/07/25 07:07:18;;;;;;;7.00;5.67;;;24.60;50.20;;;;;;4133527;28;20261;-75
2022/07/25 07:09:19;;;;;;;44.90;42.00;;;25.00;46.70;;;;;;4132046;28;20182;-75
2022/07/25 07:11:19;;;;;;;10.37;9.63;;;25.30;44.90;;;;;;4132158;28;20183;-75
2022/07/25 07:13:22;;;;;;;12.10;11.20;;;25.60;43.00;;;;;;4132168;28;20186;-75
2022/07/25 07:15:23;;;;;;;9.90;9.00;;;25.80;42.30;;;;;;4132603;28;20289;-74
2022/07/25 07:17:23;;;;;;;30.23;28.23;;;26.00;41.60;;;;;;4133474;28;20186;-75
2022/07/25 07:19:24;;;;;;;17.43;16.27;;;26.00;41.30;;;;;;4132159;28;20178;-74
2022/07/25 07:21:24;;;;;;;12.27;11.33;;;26.10;41.30;;;;;;4133390;28;20182;-74
2022/07/25 07:23:25;;;;;;;4.70;4.30;;;26.30;40.80;;;;;;4133375;28;20198;-74
2022/07/25 07:25:26;;;;;;;42.43;39.43;;;26.60;39.40;;;;;;4132384;28;20242;-75
2022/07/25 07:27:26;;;;;;;7.27;6.70;;;26.70;37.70;;;;;;4133005;28;20183;-74
2022/07/25 07:29:27;;;;;;;6.17;5.67;;;26.60;36.50;;;;;;4133256;28;20178;-74
2022/07/25 07:31:28;;;;;;;5.63;4.87;;;26.70;36.40;;;;;;4132964;28;20182;-82
2022/07/25 07:33:29;;;;;;;64.13;57.40;;;26.70;37.40;;;;;;4127178;28;20197;-78
2022/07/25 07:35:30;;;;;;;51.37;47.60;;;26.80;36.80;;;;;;4139754;28;20218;-77
2022/07/25 07:37:31;;;;;;;37.10;34.57;;;26.80;36.70;;;;;;4140696;28;20190;-78
2022/07/25 07:39:31;;;;;;;42.30;38.20;;;26.80;36.80;;;;;;4135693;28;20179;-74
2022/07/25 07:41:32;;;;;;;10.30;9.40;;;26.80;36.80;;;;;;4131123;28;20849;-79
2022/07/25 07:43:32;;;;;;;12.40;11.53;;;26.80;37.50;;;;;;4132896;28;20221;-78
2022/07/25 07:45:34;;;;;;;19.00;17.60;;;27.00;37.20;;;;;;4132118;28;20194;-74
2022/07/25 07:47:35;;;;;;;11.17;10.23;;;27.10;37.10;;;;;;4132457;28;20194;-73
2022/07/25 07:49:35;;;;;;;12.20;11.27;;;27.00;36.80;;;;;;4132593;28;20241;-74
2022/07/25 07:51:36;;;;;;;9.63;8.93;;;27.00;37.70;;;;;;4132508;28;20262;-75
2022/07/25 07:55:56;;;;;;;9.60;8.70;;;27.10;36.30;;;;;;4132449;28;20232;-73
2022/07/25 07:57:58;;;;;;;22.53;20.93;;;27.10;36.40;;;;;;4132381;28;20575;-73
2022/07/25 07:59:59;;;;;;;8.53;7.83;;;27.10;36.90;;;;;;4132332;28;20701;-72
2022/07/25 08:01:59;;;;;;;26.70;24.73;;;27.30;37.20;;;;;;4130408;28;20241;-72
2022/07/25 08:04:00;;;;;;;35.00;32.67;;;27.40;36.00;;;;;;4130618;28;20218;-71
2022/07/25 08:06:00;;;;;;;17.47;15.87;;;27.30;35.70;;;;;;4132117;28;20202;-72
2022/07/25 08:08:01;;;;;;;105.83;95.27;;;27.30;36.20;;;;;;4131803;28;20178;-72
2022/07/25 08:10:02;;;;;;;11.50;10.67;;;27.40;36.20;;;;;;4131936;28;20213;-67
2022/07/25 08:12:03;;;;;;;7.30;6.60;;;27.60;35.60;;;;;;4130867;28;20183;-71
2022/07/25 08:14:05;;;;;;;50.17;46.60;;;27.50;35.60;;;;;;4131068;28;20253;-71
2022/07/25 08:16:06;;;;;;;32.27;29.77;;;27.60;34.40;;;;;;4131246;28;20267;-71
2022/07/25 08:18:07;;;;;;;14.57;13.23;;;27.50;33.60;;;;;;4131730;28;20705;-71
2022/07/25 08:20:08;;;;;;;9.87;9.13;;;27.50;34.30;;;;;;4131879;28;20197;-71
2022/07/25 08:22:09;;;;;;;13.10;11.87;;;27.50;34.20;;;;;;4131816;28;20588;-70
2022/07/25 08:24:09;;;;;;;40.03;34.93;;;27.40;34.10;;;;;;4131109;28;20213;-71
2022/07/25 08:26:10;;;;;;;16.87;15.13;;;27.40;34.30;;;;;;4131630;28;20268;-70
2022/07/25 08:28:11;;;;;;;12.43;11.40;;;27.50;34.00;;;;;;4131540;28;20186;-70
2022/07/25 08:30:13;;;;;;;7.53;6.10;;;27.70;33.60;;;;;;4131623;28;20643;-70
2022/07/25 08:32:14;;;;;;;22.43;20.80;;;27.80;33.20;;;;;;4131488;28;20261;-72
2022/07/25 08:34:14;;;;;;;7.50;6.43;;;27.70;32.50;;;;;;4130894;28;20196;-72
2022/07/25 08:36:15;;;;;;;27.27;25.30;;;27.80;32.90;;;;;;4131595;28;20182;-71
2022/07/25 08:38:16;;;;;;;18.37;17.00;;;27.90;32.00;;;;;;4131336;28;20241;-71
2022/07/25 08:40:19;;;;;;;15.17;14.07;;;27.80;32.50;;;;;;4127927;28;20182;-72
2022/07/25 08:42:20;;;;;;;6.47;5.87;;;27.80;34.10;;;;;;4122446;28;20178;-71
2022/07/25 08:44:20;;;;;;;18.07;16.63;;;28.00;32.60;;;;;;4130856;28;20230;-71
2022/07/25 08:46:22;;;;;;;6.53;5.60;;;28.10;32.00;;;;;;4131365;28;20253;-71
2022/07/25 08:48:25;;;;;;;16.67;15.43;;;28.30;31.90;;;;;;4131505;28;20197;-72
2022/07/25 08:50:28;;;;;;;7.57;5.73;;;28.30;31.30;;;;;;4130369;28;20261;-71
2022/07/25 08:52:29;;;;;;;11.27;10.37;;;28.20;31.60;;;;;;4131643;28;20178;-70
2022/07/25 08:54:30;;;;;;;15.70;14.57;;;28.20;30.80;;;;;;4131014;28;20179;-73
2022/07/25 08:56:30;;;;;;;13.43;12.43;;;27.90;31.30;;;;;;4131967;28;20254;-74
2022/07/25 08:58:31;;;;;;;37.83;33.93;;;28.10;31.60;;;;;;4131355;28;20301;-72
2022/07/25 09:00:32;;;;;;;13.20;12.30;;;28.00;31.20;;;;;;4131049;28;20241;-72
2022/07/25 09:02:32;;;;;;;7.53;6.73;;;28.10;31.10;;;;;;4131463;28;20186;-72
2022/07/25 09:04:34;;;;;;;14.70;13.67;;;28.20;30.90;;;;;;4130578;28;20214;-71
2022/07/25 09:06:36;;;;;;;10.57;9.87;;;28.40;30.50;;;;;;4131296;28;20204;-70
2022/07/25 09:08:36;;;;;;;7.87;7.17;;;28.30;31.00;;;;;;4131124;28;20623;-71
2022/07/25 09:10:38;;;;;;;22.13;20.50;;;28.40;30.80;;;;;;4131261;28;20193;-70
2022/07/25 09:12:40;;;;;;;9.93;9.03;;;28.60;30.30;;;;;;4131358;28;21555;-70
2022/07/25 09:14:43;;;;;;;6.87;5.30;;;28.50;30.20;;;;;;4130653;28;20209;-72
2022/07/25 09:16:44;;;;;;;19.30;18.03;;;28.50;30.10;;;;;;4129875;28;20206;-70
2022/07/25 09:18:44;;;;;;;6.90;6.30;;;28.50;30.30;;;;;;4130880;28;20178;-70
2022/07/25 09:20:57;;;;;;;11.40;10.37;;;28.50;30.00;;;;;;4131002;28;20214;-69
2022/07/25 09:22:58;;;;;;;7.90;7.13;;;28.60;29.70;;;;;;4130868;28;20232;-70
2022/07/25 09:24:59;;;;;;;16.03;14.63;;;28.60;29.90;;;;;;4130228;28;20214;-71
2022/07/25 09:27:08;;;;;;;16.30;15.20;;;28.80;29.70;;;;;;4130840;28;20178;-70
2022/07/25 09:29:15;;;;;;;7.67;6.37;;;28.70;29.70;;;;;;4131118;28;20700;-71
2022/07/25 09:31:17;;;;;;;46.73;42.50;;;28.80;29.80;;;;;;4130865;28;20253;-70
2022/07/25 09:33:18;;;;;;;6.00;5.20;;;28.80;29.30;;;;;;4130834;28;20183;-72
2022/07/25 09:35:29;;;;;;;20.67;19.40;;;28.80;29.50;;;;;;4130139;28;20569;-71
2022/07/25 09:37:30;;;;;;;43.50;40.53;;;28.80;29.40;;;;;;4129348;28;20650;-71
2022/07/25 09:39:43;;;;;;;7.37;6.67;;;28.90;29.50;;;;;;4130686;28;20190;-71
2022/07/25 09:41:44;;;;;;;9.43;5.70;;;28.90;29.40;;;;;;4129369;28;20178;-70
2022/07/25 09:43:44;;;;;;;6.63;5.90;;;29.10;29.40;;;;;;4130555;28;20694;-70
2022/07/25 09:45:50;;;;;;;6.37;5.77;;;29.30;29.10;;;;;;4130330;28;20553;-74
2022/07/25 09:47:54;;;;;;;12.53;11.43;;;29.40;28.80;;;;;;4131045;28;20174;-71
2022/07/25 09:49:56;;;;;;;7.27;6.63;;;29.50;28.60;;;;;;4130714;28;20577;-69
2022/07/25 09:51:56;;;;;;;5.80;5.27;;;29.60;28.40;;;;;;4129122;28;20190;-69
2022/07/25 09:53:57;;;;;;;18.87;17.63;;;29.90;28.70;;;;;;4130277;28;20548;-70
2022/07/25 09:55:58;;;;;;;39.67;35.87;;;29.80;28.30;;;;;;4130479;28;20202;-70
2022/07/25 09:57:58;;;;;;;11.40;10.53;;;29.60;28.40;;;;;;4129183;28;20612;-69
2022/07/25 10:00:00;;;;;;;18.83;17.60;;;29.60;28.00;;;;;;4130604;28;20182;-69
2022/07/25 10:02:09;;;;;;;9.53;8.83;;;29.50;28.00;;;;;;4130614;28;20202;-68
2022/07/25 10:04:23;;;;;;;13.80;12.60;;;29.70;28.20;;;;;;4129592;28;20228;-70
2022/07/25 10:06:48;;;;;;;8.40;7.63;;;29.90;28.10;;;;;;4115253;28;20664;-69
2022/07/25 10:08:50;;;;;;;8.40;7.70;;;30.10;27.80;;;;;;4130731;28;20205;-70
2022/07/25 10:10:50;;;;;;;15.13;14.13;;;30.10;27.90;;;;;;4130127;28;20575;-69
2022/07/25 10:13:27;;;;;;;6.63;5.57;;;30.30;27.50;;;;;;4129961;28;20171;-68
2022/07/25 10:15:41;;;;;;;8.83;8.13;;;30.20;27.70;;;;;;4128961;28;20194;-68
2022/07/25 10:17:42;;;;;;;6.85;6.35;;;30.40;27.70;;;;;;4129867;28;20178;-68
2022/07/25 10:19:47;;;;;;;7.50;6.85;;;30.90;27.30;;;;;;4129766;28;20747;-68
2022/07/25 10:21:54;;;;;;;29.27;27.45;;;31.10;26.50;;;;;;4129843;28;20560;-67
2022/07/25 10:24:07;;;;;;;35.78;32.15;;;31.10;26.50;;;;;;4129093;28;20301;-69
2022/07/25 10:26:09;;;;;;;6.55;5.95;;;30.90;26.70;;;;;;4129667;28;20244;-69